createdAt,value
2024-01-09T00:00:30.269Z,-10.03
2024-01-09T00:05:56.804Z,-10.00
2024-01-09T00:11:04.561Z,-10.02
2024-01-09T00:16:08.721Z,-10.01
2024-01-09T00:21:13.193Z,-10.04
2024-01-09T00:26:21.303Z,-10.07
2024-01-09T00:31:29.534Z,-10.09
2024-01-09T00:36:34.389Z,-10.14
2024-01-09T00:41:49.651Z,-10.18
2024-01-09T00:46:55.617Z,-10.23
2024-01-09T00:52:03.895Z,-10.27
2024-01-09T00:57:08.088Z,-10.28
2024-01-09T01:02:19.831Z,-10.33
2024-01-09T01:07:25.673Z,-10.38
2024-01-09T01:12:34.401Z,-10.43
2024-01-09T01:18:13.200Z,-10.47
2024-01-09T01:23:27.099Z,-10.48
2024-01-09T01:28:38.325Z,-10.48
2024-01-09T01:33:56.468Z,-10.51
2024-01-09T01:39:03.581Z,-10.54
2024-01-09T01:44:29.880Z,-10.59
2024-01-09T01:49:44.132Z,-10.60
2024-01-09T01:55:28.888Z,-10.61
2024-01-09T02:00:32.907Z,-10.66
2024-01-09T02:05:37.516Z,-10.69
2024-01-09T02:10:44.471Z,-10.69
2024-01-09T02:15:49.150Z,-10.70
2024-01-09T02:20:56.446Z,-10.69
2024-01-09T02:26:08.808Z,-10.40
2024-01-09T02:31:15.203Z,-10.61
2024-01-09T02:36:35.361Z,-10.72
2024-01-09T02:41:45.174Z,-10.76
2024-01-09T02:46:49.214Z,-10.78
2024-01-09T02:51:54.366Z,-10.79
2024-01-09T02:57:01.782Z,-10.81
2024-01-09T03:02:08.562Z,-10.85
2024-01-09T03:07:17.191Z,-10.86
2024-01-09T03:12:24.385Z,-10.89
2024-01-09T03:17:28.351Z,-10.93
2024-01-09T03:22:40.239Z,-10.96
2024-01-09T03:27:46.618Z,-11.00
2024-01-09T03:32:50.825Z,-11.02
2024-01-09T03:37:58.117Z,-11.01
2024-01-09T03:43:07.678Z,-10.99
2024-01-09T03:48:16.404Z,-11.01
2024-01-09T03:53:21.528Z,-11.02
2024-01-09T03:58:27.445Z,-11.04
2024-01-09T04:03:34.293Z,-11.05
2024-01-09T04:08:40.032Z,-11.05
2024-01-09T04:13:54.874Z,-11.08
2024-01-09T04:19:07.529Z,-11.11
2024-01-09T04:24:15.267Z,-11.13
2024-01-09T04:29:19.304Z,-11.16
2024-01-09T04:34:27.762Z,-11.16
2024-01-09T04:39:41.705Z,-11.16
2024-01-09T04:44:46.545Z,-11.15
2024-01-09T04:49:53.977Z,-11.16
2024-01-09T04:55:02.307Z,-11.18
2024-01-09T05:00:27.209Z,-11.18
2024-01-09T05:05:34.734Z,-11.19
2024-01-09T05:10:41.940Z,-11.19
2024-01-09T05:15:49.508Z,-11.19
2024-01-09T05:20:56.838Z,-11.18
2024-01-09T05:26:05.561Z,-11.17
2024-01-09T05:31:11.486Z,-11.16
2024-01-09T05:36:24.125Z,-11.18
2024-01-09T05:41:31.322Z,-11.20
2024-01-09T05:46:40.776Z,-11.24
2024-01-09T05:52:04.473Z,-11.29
2024-01-09T05:57:26.463Z,-11.30
2024-01-09T06:02:37.305Z,-11.29
2024-01-09T06:07:43.100Z,-11.28
2024-01-09T06:13:48.912Z,-11.28
2024-01-09T06:20:20.649Z,-11.31
2024-01-09T06:26:34.084Z,-11.30
2024-01-09T06:32:40.487Z,-11.28
2024-01-09T07:03:40.555Z,-10.01
2024-01-09T07:29:36.369Z,-9.46
2024-01-09T07:35:50.307Z,-9.26
2024-01-09T07:41:47.269Z,-9.09
2024-01-09T07:54:55.864Z,-8.84
2024-01-09T08:00:04.788Z,-8.79
2024-01-09T08:05:20.237Z,-8.68
2024-01-09T08:10:47.576Z,-8.58
2024-01-09T08:15:57.302Z,-8.45
2024-01-09T09:06:50.228Z,-8.01
2024-01-09T09:13:16.921Z,-7.84
2024-01-09T09:45:04.656Z,-7.22
2024-01-09T09:51:29.409Z,-7.17
2024-01-09T09:58:11.680Z,-7.00
2024-01-09T10:05:09.296Z,-6.94
2024-01-09T10:11:15.841Z,-6.93
2024-01-09T10:17:51.947Z,-6.77
2024-01-09T10:24:18.133Z,-6.64
2024-01-09T10:30:40.771Z,-6.79
2024-01-09T10:36:46.914Z,-6.68
2024-01-09T10:43:11.582Z,-6.47
2024-01-09T10:49:05.113Z,-6.40
2024-01-09T10:55:18.141Z,-6.25
2024-01-09T11:43:30.621Z,-5.29
2024-01-09T11:56:04.165Z,-5.06
2024-01-09T12:15:37.476Z,-5.13
2024-01-09T12:21:51.769Z,-5.10
2024-01-09T12:27:36.825Z,-5.11
2024-01-09T12:32:47.509Z,-5.04
2024-01-09T12:38:53.949Z,-4.88
2024-01-09T13:56:06.942Z,-4.07
2024-01-09T14:02:42.885Z,-3.87
2024-01-09T14:40:49.268Z,-3.97
2024-01-09T14:47:20.312Z,-4.75
2024-01-09T15:21:50.505Z,-4.65
2024-01-09T15:27:40.175Z,-4.74
2024-01-09T15:32:54.884Z,-4.84
2024-01-09T15:38:01.644Z,-4.94
2024-01-09T15:43:17.061Z,-5.04
2024-01-09T15:48:52.771Z,-5.17
2024-01-09T15:54:05.841Z,-5.32
2024-01-09T15:59:23.587Z,-5.49
2024-01-09T16:04:50.462Z,-5.70
2024-01-09T16:10:05.351Z,-5.82
2024-01-09T16:15:20.735Z,-5.92
2024-01-09T16:20:25.028Z,-6.00
2024-01-09T16:25:36.915Z,-6.03
2024-01-09T16:30:45.549Z,-6.01
2024-01-09T16:36:35.766Z,-6.01
2024-01-09T16:42:43.522Z,-6.09
2024-01-09T16:48:32.320Z,-6.23
2024-01-09T16:54:06.115Z,-6.40
2024-01-09T16:59:14.059Z,-6.44
2024-01-09T17:04:19.449Z,-6.44
2024-01-09T17:09:29.356Z,-6.48
2024-01-09T17:14:38.697Z,-6.55
2024-01-09T17:20:15.433Z,-6.54
2024-01-09T17:25:40.299Z,-6.57
2024-01-09T17:31:15.159Z,-6.58
2024-01-09T17:36:40.549Z,-6.63
2024-01-09T17:41:55.025Z,-6.68
2024-01-09T17:47:02.086Z,-6.73
2024-01-09T17:52:11.167Z,-6.80
2024-01-09T17:57:34.416Z,-6.87
2024-01-09T18:02:49.718Z,-6.93
2024-01-09T18:08:29.257Z,-7.00
2024-01-09T18:13:59.506Z,-7.07
2024-01-09T18:19:08.751Z,-7.12
2024-01-09T18:24:52.611Z,-7.16
2024-01-09T18:29:56.917Z,-7.24
2024-01-09T18:35:01.880Z,-7.34
2024-01-09T18:40:47.094Z,-7.44
2024-01-09T18:45:55.290Z,-7.57
2024-01-09T18:51:02.536Z,-7.62
2024-01-09T18:56:07.192Z,-7.72
2024-01-09T19:02:13.919Z,-7.80
2024-01-09T19:08:10.862Z,-7.86
2024-01-09T19:14:07.030Z,-7.93
2024-01-09T19:20:23.554Z,-8.09
2024-01-09T19:26:19.082Z,-8.17
2024-01-09T19:32:00.624Z,-8.18
2024-01-09T19:37:49.206Z,-8.13
2024-01-09T19:43:52.257Z,-8.12
2024-01-09T19:49:32.110Z,-8.09
2024-01-09T19:55:11.020Z,-8.09
2024-01-09T20:00:37.318Z,-8.14
2024-01-09T20:05:41.717Z,-8.20
2024-01-09T20:11:09.208Z,-8.25
2024-01-09T20:16:51.266Z,-8.30
2024-01-09T20:21:56.244Z,-8.38
2024-01-09T20:28:04.544Z,-8.37
2024-01-09T20:34:56.555Z,-8.38
2024-01-09T20:40:53.170Z,-8.43
2024-01-09T20:47:02.509Z,-8.52
2024-01-09T20:53:22.234Z,-8.56
2024-01-09T20:59:10.161Z,-8.56
2024-01-09T21:22:22.030Z,-8.70
2024-01-09T21:28:07.950Z,-8.77
2024-01-09T21:33:46.842Z,-8.80
2024-01-09T21:39:41.040Z,-8.78
2024-01-09T21:44:52.993Z,-8.77
2024-01-09T21:49:57.603Z,-8.79
2024-01-09T21:56:19.120Z,-8.79
2024-01-09T22:02:44.910Z,-8.76
2024-01-09T22:08:59.352Z,-8.74
2024-01-09T22:40:37.344Z,-9.01
2024-01-09T22:47:13.677Z,-9.03
2024-01-09T22:53:30.276Z,-9.03
2024-01-09T23:20:05.650Z,-9.15
2024-01-09T23:26:21.183Z,-9.17
2024-01-09T23:39:01.158Z,-9.10
2024-01-09T23:45:05.940Z,-9.13
2024-01-09T23:51:40.335Z,-9.17
